Time;durP1;ratioP1;P1;durP2;ratioP2;P2;SDS_P1;SDS_P2;PMS_P1;PMS_P2;Temp;Humidity;BMP_temperature;BMP_pressure;BME280_temperature;BME280_humidity;BME280_pressure;Samples;Min_cycle;Max_cycle;Signal;HPM_P1;HPM_P2
2022/10/04 00:00:40;;;;;;;14.90;5.60;;;9.10;99.90;;;;;;5008267;28;20128;-79
2022/10/04 00:03:10;;;;;;;18.75;6.20;;;9.10;99.90;;;;;;5009171;28;20041;-78
2022/10/04 00:05:36;;;;;;;18.02;5.57;;;9.00;99.90;;;;;;5009100;28;20367;-79
2022/10/04 00:08:44;;;;;;;19.33;5.90;;;9.10;99.90;;;;;;5009292;28;20124;-78
2022/10/04 00:11:25;;;;;;;15.77;5.65;;;9.10;99.90;;;;;;5004111;28;20416;-78
2022/10/04 00:13:59;;;;;;;18.25;5.93;;;9.10;99.90;;;;;;5000729;28;20022;-79
2022/10/04 00:16:31;;;;;;;17.95;6.03;;;9.20;99.90;;;;;;5008232;28;20118;-79
2022/10/04 00:19:24;;;;;;;20.83;6.30;;;9.20;99.90;;;;;;5011128;28;20041;-78
2022/10/04 00:21:54;;;;;;;15.98;6.03;;;9.20;99.90;;;;;;4989950;28;20042;-78
2022/10/04 00:24:31;;;;;;;15.65;5.80;;;9.20;99.90;;;;;;5005052;28;20132;-78
2022/10/04 00:27:23;;;;;;;16.63;5.97;;;9.20;99.90;;;;;;4998369;28;20030;-78
2022/10/04 00:30:14;;;;;;;18.58;6.35;;;9.20;99.90;;;;;;5003942;28;20030;-79
2022/10/04 00:32:39;;;;;;;16.65;5.82;;;9.20;99.90;;;;;;5011948;28;20038;-78
2022/10/04 00:35:23;;;;;;;14.88;6.35;;;9.20;99.90;;;;;;5008378;28;20026;-78
2022/10/04 00:38:01;;;;;;;18.30;6.57;;;9.20;99.90;;;;;;5022445;28;20037;-78
2022/10/04 00:40:33;;;;;;;25.10;6.38;;;9.30;99.90;;;;;;5002837;28;20143;-79
2022/10/04 00:43:05;;;;;;;21.48;6.90;;;9.20;99.90;;;;;;5007148;28;20033;-78
2022/10/04 00:45:44;;;;;;;22.05;6.82;;;9.20;99.90;;;;;;5010907;28;20114;-79
2022/10/04 00:48:33;;;;;;;19.23;6.38;;;9.20;99.90;;;;;;5014367;28;20033;-79
2022/10/04 00:51:19;;;;;;;21.90;7.05;;;9.30;99.90;;;;;;5009661;28;20082;-79
2022/10/04 00:53:56;;;;;;;19.77;6.72;;;9.30;99.90;;;;;;5004550;28;20048;-79
2022/10/04 00:56:38;;;;;;;24.08;6.93;;;9.40;99.90;;;;;;4995744;28;20037;-78
2022/10/04 00:59:30;;;;;;;14.50;6.38;;;9.30;99.90;;;;;;5008618;28;20038;-78
2022/10/04 01:02:01;;;;;;;20.05;7.38;;;9.30;99.90;;;;;;5006741;28;20040;-78
2022/10/04 01:04:34;;;;;;;15.75;6.55;;;9.40;99.90;;;;;;5012452;28;20037;-78
2022/10/04 01:07:02;;;;;;;18.67;6.97;;;9.40;99.90;;;;;;5015868;28;20025;-78
2022/10/04 01:09:31;;;;;;;16.15;7.25;;;9.40;99.90;;;;;;5004340;28;20037;-78
2022/10/04 01:12:04;;;;;;;26.88;8.13;;;9.40;99.90;;;;;;5005768;28;20022;-78
2022/10/04 01:14:46;;;;;;;17.65;7.47;;;9.40;99.90;;;;;;5011767;28;20138;-77
2022/10/04 01:17:11;;;;;;;22.45;8.10;;;9.40;99.90;;;;;;4996158;28;20129;-77
2022/10/04 01:19:40;;;;;;;26.10;8.63;;;9.40;99.90;;;;;;4999446;28;20109;-78
2022/10/04 01:22:11;;;;;;;26.27;8.23;;;9.40;99.90;;;;;;5012451;28;20038;-77
2022/10/04 01:24:39;;;;;;;23.70;8.23;;;9.40;99.90;;;;;;5013346;28;20041;-77
2022/10/04 01:27:30;;;;;;;23.98;8.27;;;9.40;99.90;;;;;;5009800;28;20048;-78
2022/10/04 01:29:56;;;;;;;22.38;8.40;;;9.40;99.90;;;;;;5015777;28;20041;-78
2022/10/04 01:32:22;;;;;;;25.50;8.90;;;9.40;99.90;;;;;;5014776;28;20374;-78
2022/10/04 01:34:47;;;;;;;20.92;8.20;;;9.40;99.90;;;;;;5005734;28;20169;-78
2022/10/04 01:37:13;;;;;;;21.00;9.13;;;9.40;99.90;;;;;;5009307;28;20502;-78
2022/10/04 01:39:38;;;;;;;16.92;8.55;;;9.40;99.90;;;;;;5009024;28;20034;-78
2022/10/04 01:42:15;;;;;;;20.95;9.15;;;9.40;99.90;;;;;;5010018;28;20037;-78
2022/10/04 01:44:55;;;;;;;21.88;8.95;;;9.40;99.90;;;;;;5012102;28;20363;-78
2022/10/04 01:47:36;;;;;;;26.48;9.05;;;9.50;99.90;;;;;;5005463;28;20426;-78
2022/10/04 01:50:13;;;;;;;25.17;8.60;;;9.40;99.90;;;;;;5012101;28;20044;-78
2022/10/04 01:52:44;;;;;;;29.80;8.80;;;9.50;99.90;;;;;;4999776;28;20049;-78
2022/10/04 01:55:16;;;;;;;21.33;9.45;;;9.50;99.90;;;;;;5008059;28;20312;-78
2022/10/04 01:57:46;;;;;;;;;;;9.50;99.90;;;;;;5011766;28;20410;-78
2022/10/04 02:00:12;;;;;;;21.13;8.33;;;9.50;99.90;;;;;;5013928;28;19920;-78
2022/10/04 02:02:50;;;;;;;20.35;9.48;;;9.50;99.90;;;;;;5013944;28;20851;-78
2022/10/04 02:05:32;;;;;;;16.65;9.32;;;9.50;99.90;;;;;;5009409;28;20034;-78
2022/10/04 02:08:08;;;;;;;31.40;10.98;;;9.50;99.90;;;;;;5005255;28;20045;-78
2022/10/04 02:10:37;;;;;;;26.90;9.82;;;9.60;99.90;;;;;;5013061;28;20108;-78
2022/10/04 02:13:08;;;;;;;24.73;10.73;;;9.50;99.90;;;;;;5009208;28;20139;-78
2022/10/04 02:15:36;;;;;;;27.17;10.52;;;9.50;99.90;;;;;;5012273;28;20040;-79
2022/10/04 02:18:05;;;;;;;24.70;10.13;;;9.60;99.90;;;;;;5010654;28;20459;-78
2022/10/04 02:20:31;;;;;;;25.67;10.10;;;9.60;99.90;;;;;;5007491;28;20040;-78
2022/10/04 02:23:01;;;;;;;23.48;10.13;;;9.60;99.90;;;;;;5009303;28;20030;-78
2022/10/04 02:25:28;;;;;;;21.95;9.82;;;9.60;99.90;;;;;;5000281;28;20046;-79
2022/10/04 02:27:54;;;;;;;25.83;10.00;;;9.60;99.90;;;;;;5009239;28;20076;-78
2022/10/04 02:30:21;;;;;;;28.17;10.52;;;9.60;99.90;;;;;;5008478;28;20430;-78
2022/10/04 02:32:56;;;;;;;23.15;9.60;;;9.60;99.90;;;;;;5011818;28;20034;-78
2022/10/04 02:35:26;;;;;;;19.73;9.45;;;9.50;99.90;;;;;;5005056;28;20124;-78
2022/10/04 02:38:02;;;;;;;20.40;9.82;;;9.50;99.90;;;;;;5000701;28;20150;-78
2022/10/04 02:40:39;;;;;;;26.83;9.20;;;9.60;99.90;;;;;;5003330;28;20030;-78
2022/10/04 02:43:33;;;;;;;24.48;9.70;;;9.60;99.90;;;;;;5004079;28;20041;-79
2022/10/04 02:46:12;;;;;;;27.48;10.15;;;9.60;99.90;;;;;;5004347;28;20030;-78
2022/10/04 02:48:59;;;;;;;22.77;9.60;;;9.60;99.90;;;;;;5008704;28;20029;-78
2022/10/04 02:51:43;;;;;;;22.17;9.38;;;9.60;99.90;;;;;;5020792;28;20034;-78
2022/10/04 02:54:18;;;;;;;24.52;10.07;;;9.60;99.90;;;;;;5006929;28;20073;-78
2022/10/04 02:56:44;;;;;;;21.70;9.85;;;9.50;99.90;;;;;;5002022;28;20441;-78
2022/10/04 02:59:15;;;;;;;25.63;9.68;;;9.50;99.90;;;;;;5004796;28;20044;-78
2022/10/04 03:01:53;;;;;;;23.58;9.57;;;9.40;99.90;;;;;;5016771;28;20082;-79
2022/10/04 03:04:22;;;;;;;29.35;9.85;;;9.40;99.90;;;;;;5010122;28;20034;-78
2022/10/04 03:06:49;;;;;;;22.65;10.30;;;9.30;99.90;;;;;;5013755;28;20109;-78
2022/10/04 03:09:15;;;;;;;18.20;9.73;;;9.30;99.90;;;;;;5008086;28;20042;-78
2022/10/04 03:11:41;;;;;;;21.30;10.05;;;9.30;99.90;;;;;;5006661;28;20040;-79
2022/10/04 03:14:12;;;;;;;26.95;10.40;;;9.40;99.90;;;;;;5007454;28;20022;-78
2022/10/04 03:16:42;;;;;;;23.85;9.65;;;9.30;99.90;;;;;;4999149;28;20110;-79
2022/10/04 03:19:08;;;;;;;27.38;10.88;;;9.40;99.90;;;;;;5003440;28;20065;-78
2022/10/04 03:21:37;;;;;;;29.65;11.43;;;9.50;99.90;;;;;;5008093;28;20040;-78
2022/10/04 03:24:05;;;;;;;26.60;11.15;;;9.50;99.90;;;;;;5007148;28;20045;-78
2022/10/04 03:26:48;;;;;;;24.75;11.20;;;9.50;99.90;;;;;;5002927;28;20112;-79
2022/10/04 03:29:15;;;;;;;30.75;11.35;;;9.50;99.90;;;;;;5007665;28;20113;-78
2022/10/04 03:31:46;;;;;;;23.35;11.18;;;9.50;99.90;;;;;;5008031;28;20053;-78
2022/10/04 03:34:18;;;;;;;29.63;11.55;;;9.50;99.90;;;;;;4999948;28;20037;-78
2022/10/04 03:36:48;;;;;;;27.85;11.32;;;9.50;99.90;;;;;;5010024;28;20366;-79
2022/10/04 03:39:27;;;;;;;31.80;12.13;;;9.60;99.90;;;;;;5008014;28;20336;-78
2022/10/04 03:41:53;;;;;;;23.85;11.60;;;9.60;99.90;;;;;;5005708;28;20061;-78
2022/10/04 03:44:20;;;;;;;28.70;12.95;;;9.60;99.90;;;;;;5008470;28;20030;-78
2022/10/04 03:46:46;;;;;;;23.20;12.02;;;9.60;99.90;;;;;;5012976;28;20371;-78
2022/10/04 03:49:17;;;;;;;28.55;12.60;;;9.60;99.90;;;;;;5004335;28;20045;-78
2022/10/04 03:51:49;;;;;;;33.13;12.88;;;9.60;99.90;;;;;;5015924;28;20035;-78
2022/10/04 03:54:20;;;;;;;26.67;12.13;;;9.60;99.90;;;;;;5007248;28;20457;-78
2022/10/04 03:56:46;;;;;;;30.05;12.65;;;9.60;99.90;;;;;;5007131;28;20054;-78
2022/10/04 03:59:16;;;;;;;31.45;12.73;;;9.60;99.90;;;;;;5008037;28;20055;-78
2022/10/04 04:02:11;;;;;;;26.27;12.07;;;9.60;99.90;;;;;;5004857;28;20323;-79
2022/10/04 04:04:48;;;;;;;29.65;12.07;;;9.60;99.90;;;;;;5005444;28;20030;-79
2022/10/04 04:07:29;;;;;;;33.55;13.43;;;9.70;99.90;;;;;;5005310;28;20034;-79
2022/10/04 04:10:04;;;;;;;23.60;12.13;;;9.70;99.90;;;;;;5007897;28;20486;-79
2022/10/04 04:13:00;;;;;;;27.80;12.27;;;9.70;99.90;;;;;;5002101;28;20025;-79
2022/10/04 04:15:32;;;;;;;21.60;11.32;;;9.70;99.90;;;;;;5007555;28;20335;-79
2022/10/04 04:18:19;;;;;;;26.60;12.52;;;9.70;99.90;;;;;;5008206;28;20461;-79
2022/10/04 04:20:46;;;;;;;27.77;11.60;;;9.70;99.90;;;;;;5005279;28;20057;-79
2022/10/04 04:23:21;;;;;;;24.77;12.43;;;9.60;99.90;;;;;;5006712;28;20439;-78
2022/10/04 04:25:49;;;;;;;32.50;12.93;;;9.60;99.90;;;;;;4993431;28;20114;-79
2022/10/04 04:28:32;;;;;;;23.52;11.48;;;9.60;99.90;;;;;;5012978;28;20084;-78
2022/10/04 04:31:19;;;;;;;21.27;12.07;;;9.60;99.90;;;;;;5006562;28;20458;-68
2022/10/04 04:33:59;;;;;;;28.30;11.30;;;9.60;99.90;;;;;;5005157;28;20572;-68
2022/10/04 04:36:27;;;;;;;26.02;12.45;;;9.60;99.90;;;;;;5006375;28;20153;-68
2022/10/04 04:41:37;;;;;;;30.55;10.85;;;9.60;99.90;;;;;;5001322;28;20045;-68
2022/10/04 04:44:03;;;;;;;27.48;11.50;;;9.60;99.90;;;;;;5008103;28;20022;-67
2022/10/04 04:46:30;;;;;;;24.83;11.98;;;9.60;99.90;;;;;;5009174;28;20034;-67
2022/10/04 04:49:02;;;;;;;32.10;12.60;;;9.50;99.90;;;;;;5004458;28;20042;-67
2022/10/04 04:51:30;;;;;;;29.45;11.70;;;9.50;99.90;;;;;;5004418;28;20034;-67
2022/10/04 04:53:56;;;;;;;25.80;12.30;;;9.50;99.90;;;;;;5004479;28;20450;-67
2022/10/04 04:56:26;;;;;;;24.38;12.52;;;9.60;99.90;;;;;;5004288;28;20129;-67
2022/10/04 04:58:53;;;;;;;28.90;12.02;;;9.60;99.90;;;;;;4994315;28;20034;-67
2022/10/04 05:01:27;;;;;;;19.52;11.60;;;9.60;99.90;;;;;;5001273;28;20038;-67
2022/10/04 05:04:18;;;;;;;27.63;11.93;;;9.60;99.90;;;;;;5003768;28;20056;-68
2022/10/04 05:06:47;;;;;;;19.10;11.10;;;9.60;99.90;;;;;;5015061;28;20530;-69
2022/10/04 05:09:23;;;;;;;30.60;11.80;;;9.60;99.90;;;;;;4997504;28;20032;-68
2022/10/04 05:11:50;;;;;;;26.85;11.55;;;9.60;99.90;;;;;;4998061;28;20095;-67
2022/10/04 05:14:16;;;;;;;29.90;11.55;;;9.60;99.90;;;;;;5010113;28;20426;-67
2022/10/04 05:16:51;;;;;;;24.20;11.75;;;9.60;99.90;;;;;;4999714;28;20101;-67
2022/10/04 05:19:30;;;;;;;26.42;12.18;;;9.60;99.90;;;;;;5001911;28;20045;-68
2022/10/04 05:22:00;;;;;;;31.63;12.30;;;9.60;99.90;;;;;;5005144;28;20432;-67
2022/10/04 05:24:33;;;;;;;32.67;11.93;;;9.60;99.90;;;;;;5002312;28;20034;-67
2022/10/04 05:27:04;;;;;;;24.17;11.90;;;9.70;99.90;;;;;;4998831;28;20042;-67
2022/10/04 05:29:36;;;;;;;26.15;10.88;;;9.60;99.90;;;;;;4998424;28;20100;-67
2022/10/04 05:32:47;;;;;;;26.38;11.57;;;9.60;99.90;;;;;;4997618;28;20110;-67
2022/10/04 05:35:15;;;;;;;24.25;10.68;;;9.60;99.90;;;;;;4941041;28;20058;-68
2022/10/04 05:38:09;;;;;;;25.80;11.68;;;9.60;99.90;;;;;;4945473;28;20584;-66
2022/10/04 05:40:46;;;;;;;24.45;10.73;;;9.60;99.90;;;;;;4967020;28;20050;-66
2022/10/04 05:43:35;;;;;;;26.23;11.27;;;9.60;99.90;;;;;;5001087;28;20030;-67
2022/10/04 05:46:20;;;;;;;22.58;10.98;;;9.60;99.90;;;;;;4998208;28;20026;-66
2022/10/04 05:48:51;;;;;;;24.10;11.02;;;9.60;99.90;;;;;;4998724;28;20563;-66
2022/10/04 05:51:21;;;;;;;;;;;9.60;99.90;;;;;;4998264;28;20353;-67
2022/10/04 05:53:49;;;;;;;18.77;9.65;;;9.60;99.90;;;;;;4991471;28;20377;-66
2022/10/04 05:56:24;;;;;;;21.83;10.32;;;9.60;99.90;;;;;;4988399;28;20092;-66
2022/10/04 05:59:07;;;;;;;27.63;11.02;;;9.60;99.90;;;;;;5000152;28;20049;-66
2022/10/04 06:01:45;;;;;;;23.52;11.05;;;9.60;99.90;;;;;;4995215;28;20167;-67
2022/10/04 06:04:22;;;;;;;24.40;10.50;;;9.60;99.90;;;;;;5010048;28;20033;-66
2022/10/04 06:07:11;;;;;;;23.98;10.93;;;9.60;99.90;;;;;;5006604;28;20153;-66
2022/10/04 06:09:56;;;;;;;21.77;10.93;;;9.50;99.90;;;;;;5001759;28;20026;-66
2022/10/04 06:12:54;;;;;;;26.30;11.15;;;9.50;99.90;;;;;;4998557;28;20045;-66
2022/10/04 06:15:46;;;;;;;21.67;10.27;;;9.50;99.90;;;;;;5006120;28;20160;-67
2022/10/04 06:18:30;;;;;;;27.63;11.63;;;9.50;99.90;;;;;;5001770;28;20053;-66
2022/10/04 06:21:04;;;;;;;25.70;11.65;;;9.50;99.90;;;;;;5009823;28;20097;-66
2022/10/04 06:23:34;;;;;;;21.30;11.63;;;9.50;99.90;;;;;;5008161;28;20109;-67
2022/10/04 06:26:10;;;;;;;24.42;12.20;;;9.50;99.90;;;;;;5002454;28;20026;-67
2022/10/04 06:28:50;;;;;;;22.92;12.23;;;9.50;99.90;;;;;;5012854;28;20343;-66
2022/10/04 06:31:30;;;;;;;35.40;12.27;;;9.50;99.90;;;;;;5010436;28;20145;-67
2022/10/04 06:34:34;;;;;;;20.70;11.35;;;9.40;99.90;;;;;;5010330;28;20041;-69
2022/10/04 06:37:16;;;;;;;28.45;11.35;;;9.40;99.90;;;;;;5010616;28;20037;-67
2022/10/04 06:39:55;;;;;;;30.58;12.30;;;9.40;99.90;;;;;;5001191;28;20091;-68
2022/10/04 06:42:32;;;;;;;23.30;11.25;;;9.50;99.90;;;;;;5008593;28;20127;-66
2022/10/04 06:45:21;;;;;;;26.00;12.23;;;9.40;99.90;;;;;;5007827;28;20359;-66
2022/10/04 06:48:04;;;;;;;26.08;12.02;;;9.40;99.90;;;;;;5007084;28;20025;-66
2022/10/04 06:50:42;;;;;;;25.50;11.73;;;9.50;99.90;;;;;;5015398;28;20116;-68
2022/10/04 06:53:46;;;;;;;34.08;13.20;;;9.60;99.90;;;;;;5000707;28;20034;-66
2022/10/04 06:56:17;;;;;;;28.08;13.75;;;9.60;99.90;;;;;;4998228;28;20102;-67
2022/10/04 06:59:02;;;;;;;30.70;14.07;;;9.70;99.90;;;;;;5002949;28;20045;-66
2022/10/04 07:01:30;;;;;;;30.17;15.10;;;9.80;99.90;;;;;;4993751;28;20128;-66
2022/10/04 07:04:07;;;;;;;31.95;14.63;;;9.90;99.90;;;;;;4998331;28;20037;-66
2022/10/04 07:06:41;;;;;;;33.03;14.88;;;9.90;99.90;;;;;;5009170;28;20061;-66
2022/10/04 07:09:18;;;;;;;39.58;16.75;;;10.00;99.90;;;;;;5009031;28;20054;-66
2022/10/04 07:12:02;;;;;;;35.97;15.70;;;10.10;99.90;;;;;;5007774;28;20431;-66
2022/10/04 07:14:34;;;;;;;36.75;15.85;;;10.10;99.90;;;;;;4998925;28;20035;-66
2022/10/04 07:17:09;;;;;;;36.67;16.65;;;10.10;99.90;;;;;;5009845;28;20094;-66
2022/10/04 07:19:46;;;;;;;38.78;17.20;;;10.30;99.90;;;;;;5011039;28;20042;-67
2022/10/04 07:22:29;;;;;;;49.42;16.55;;;10.30;99.90;;;;;;5010937;28;20095;-66
2022/10/04 07:25:17;;;;;;;41.80;17.20;;;10.40;99.90;;;;;;5006357;28;20104;-66
2022/10/04 07:31:02;;;;;;;42.70;17.92;;;10.60;99.90;;;;;;4998559;28;20088;-66
2022/10/04 07:33:35;;;;;;;39.30;17.83;;;10.60;99.90;;;;;;5005229;28;20038;-69
2022/10/04 07:36:06;;;;;;;43.13;18.58;;;10.70;99.90;;;;;;5000519;28;20033;-67
2022/10/04 07:38:36;;;;;;;42.30;18.83;;;10.70;99.90;;;;;;5008376;28;20458;-68
2022/10/04 07:41:20;;;;;;;43.95;19.02;;;10.80;99.90;;;;;;5008456;28;20045;-66
2022/10/04 07:44:00;;;;;;;41.90;18.30;;;10.90;99.90;;;;;;5007283;28;20049;-66
2022/10/04 07:46:43;;;;;;;42.87;18.80;;;11.00;99.90;;;;;;5010588;28;20048;-66
2022/10/04 07:49:22;;;;;;;39.85;18.88;;;11.00;99.80;;;;;;4994598;28;20374;-66
2022/10/04 07:52:15;;;;;;;37.33;17.20;;;11.10;99.80;;;;;;5002739;28;20499;-67
2022/10/04 07:55:06;;;;;;;38.83;18.88;;;11.30;99.60;;;;;;5009065;28;20117;-66
2022/10/04 07:58:00;;;;;;;37.22;18.00;;;11.40;99.50;;;;;;5009708;28;20064;-67
2022/10/04 08:00:48;;;;;;;41.65;17.92;;;11.50;99.20;;;;;;5009860;28;20060;-66
2022/10/04 08:03:35;;;;;;;39.85;18.00;;;11.70;98.90;;;;;;5008256;28;20026;-66
2022/10/04 08:06:22;;;;;;;34.25;18.75;;;11.90;98.80;;;;;;4998311;28;20462;-67
2022/10/04 08:09:12;;;;;;;38.85;18.58;;;12.00;98.10;;;;;;5007692;28;20053;-68
2022/10/04 08:11:56;;;;;;;32.70;16.02;;;12.20;97.90;;;;;;5007812;28;20466;-67
2022/10/04 08:14:59;;;;;;;35.80;16.10;;;12.40;97.20;;;;;;5001997;28;20030;-67
2022/10/04 08:17:48;;;;;;;27.63;14.95;;;12.60;96.40;;;;;;4996995;28;20130;-67
2022/10/04 08:20:35;;;;;;;24.75;13.93;;;12.70;95.70;;;;;;5009850;28;20022;-68
2022/10/04 08:23:22;;;;;;;26.85;12.32;;;12.70;95.40;;;;;;5004434;28;20493;-67
2022/10/04 08:26:10;;;;;;;20.63;11.00;;;12.80;94.60;;;;;;5004836;28;20033;-67
2022/10/04 08:31:54;;;;;;;21.80;9.48;;;13.30;94.40;;;;;;5010152;28;20159;-67
2022/10/04 08:34:56;;;;;;;18.48;8.65;;;13.50;93.30;;;;;;5008490;28;20073;-67
2022/10/04 08:37:45;;;;;;;12.07;6.75;;;13.60;92.80;;;;;;5008740;28;20037;-68
2022/10/04 08:40:32;;;;;;;13.88;6.43;;;13.70;91.70;;;;;;5000734;28;20117;-68
2022/10/04 08:43:28;;;;;;;13.88;6.35;;;14.00;92.10;;;;;;5005718;28;20087;-67
2022/10/04 08:46:12;;;;;;;19.48;5.80;;;14.30;90.60;;;;;;5008472;28;20029;-68
2022/10/04 08:49:12;;;;;;;14.50;5.20;;;14.60;89.30;;;;;;5007610;28;20029;-68
2022/10/04 08:51:46;;;;;;;12.77;4.28;;;14.90;89.00;;;;;;5008436;28;20471;-68
2022/10/04 08:54:48;;;;;;;14.30;4.20;;;14.80;87.30;;;;;;5006715;28;20397;-67
2022/10/04 08:57:32;;;;;;;14.10;3.95;;;14.80;87.60;;;;;;5006517;28;20202;-68
2022/10/04 09:00:16;;;;;;;9.13;3.60;;;14.90;87.10;;;;;;5009311;28;20026;-67
2022/10/04 09:03:17;;;;;;;10.68;3.50;;;15.00;86.90;;;;;;4999564;28;20090;-69
2022/10/04 09:05:59;;;;;;;16.20;3.38;;;15.10;86.50;;;;;;5003287;28;20153;-68
2022/10/04 09:08:51;;;;;;;12.68;4.20;;;15.30;85.50;;;;;;5000733;28;20050;-68
2022/10/04 09:11:42;;;;;;;10.52;3.13;;;15.40;84.90;;;;;;4982203;28;20049;-68
2022/10/04 09:14:32;;;;;;;13.82;3.40;;;15.60;84.70;;;;;;5005434;28;20045;-68
2022/10/04 09:17:35;;;;;;;11.25;2.95;;;15.70;84.10;;;;;;5011709;28;20053;-68
2022/10/04 09:20:31;;;;;;;7.70;2.80;;;15.70;84.10;;;;;;5008727;28;20029;-68
2022/10/04 09:23:21;;;;;;;10.90;2.85;;;15.90;84.80;;;;;;5007596;28;20030;-68
2022/10/04 09:25:57;;;;;;;9.32;3.30;;;15.70;83.10;;;;;;5013640;28;20026;-68
2022/10/04 09:28:45;;;;;;;8.95;2.83;;;15.70;82.90;;;;;;5013536;28;20029;-67
2022/10/04 09:31:21;;;;;;;12.35;2.80;;;15.70;83.80;;;;;;5003978;28;20037;-68
2022/10/04 09:34:23;;;;;;;9.43;3.10;;;15.70;83.60;;;;;;5006408;28;20474;-68
2022/10/04 09:37:28;;;;;;;10.95;2.88;;;15.70;83.30;;;;;;5009117;28;20045;-68
2022/10/04 09:40:19;;;;;;;9.52;2.85;;;15.80;84.00;;;;;;4966228;28;20417;-68
2022/10/04 09:43:17;;;;;;;10.40;3.23;;;15.90;84.50;;;;;;5009873;28;20058;-69
2022/10/04 09:45:57;;;;;;;11.70;3.25;;;15.90;83.90;;;;;;5004806;28;20352;-67
2022/10/04 09:48:41;;;;;;;8.00;2.85;;;15.80;83.30;;;;;;5000507;28;20037;-68
2022/10/04 09:51:31;;;;;;;10.75;2.97;;;15.90;83.80;;;;;;5011611;28;20395;-69
2022/10/04 09:54:14;;;;;;;10.45;2.80;;;16.10;83.50;;;;;;5010478;28;20045;-68
2022/10/04 09:56:58;;;;;;;10.52;2.65;;;16.30;83.50;;;;;;5010956;28;20066;-67
2022/10/04 09:59:50;;;;;;;7.28;2.30;;;16.30;81.80;;;;;;5012308;28;20438;-68
2022/10/04 10:02:27;;;;;;;10.10;3.03;;;16.50;82.70;;;;;;5011708;28;20392;-68
2022/10/04 10:05:32;;;;;;;12.57;3.08;;;16.60;81.00;;;;;;5006374;28;20080;-68
2022/10/04 10:08:24;;;;;;;8.93;2.40;;;16.80;80.90;;;;;;5009819;28;20311;-68
2022/10/04 10:14:44;;;;;;;9.07;2.70;;;17.10;80.10;;;;;;5008895;28;20084;-68
2022/10/04 10:17:40;;;;;;;10.50;3.17;;;17.40;79.60;;;;;;5005939;28;20037;-69
2022/10/04 10:20:30;;;;;;;14.38;3.15;;;17.50;79.40;;;;;;5009047;28;20045;-68
2022/10/04 10:23:18;;;;;;;12.07;3.22;;;17.40;79.30;;;;;;5010249;28;20427;-68
2022/10/04 10:26:23;;;;;;;11.27;3.33;;;17.20;78.00;;;;;;5010410;28;20489;-69
2022/10/04 10:29:19;;;;;;;8.95;3.05;;;17.20;77.10;;;;;;5009462;28;20384;-68
2022/10/04 10:32:08;;;;;;;9.18;3.00;;;17.00;76.80;;;;;;5013004;28;20087;-68
2022/10/04 10:35:01;;;;;;;11.98;3.25;;;16.90;78.40;;;;;;5010936;28;20044;-68
2022/10/04 10:37:44;;;;;;;10.73;2.97;;;16.90;78.70;;;;;;5010967;28;20034;-68
2022/10/04 10:40:39;;;;;;;8.75;2.50;;;16.60;78.50;;;;;;5000663;28;20036;-68
2022/10/04 10:43:36;;;;;;;7.55;2.10;;;16.30;78.30;;;;;;5011923;28;20043;-69
2022/10/04 10:46:31;;;;;;;13.68;2.53;;;16.00;79.20;;;;;;5018953;28;20445;-68
2022/10/04 10:49:25;;;;;;;8.32;2.42;;;16.30;78.60;;;;;;5010308;28;20030;-68
2022/10/04 10:52:35;;;;;;;8.65;2.58;;;16.70;77.90;;;;;;5009524;28;20105;-68
2022/10/04 10:55:26;;;;;;;8.40;2.40;;;17.10;77.10;;;;;;5002703;28;20041;-70
2022/10/04 10:58:18;;;;;;;13.60;2.35;;;17.40;75.20;;;;;;5019361;28;20190;-68
2022/10/04 11:01:17;;;;;;;9.15;2.25;;;17.60;73.30;;;;;;5006215;28;20052;-68
2022/10/04 11:04:31;;;;;;;6.88;2.13;;;17.60;72.90;;;;;;5009176;28;20374;-69
2022/10/04 11:07:26;;;;;;;7.53;1.98;;;17.90;72.60;;;;;;5010770;28;20029;-67
2022/10/04 11:10:13;;;;;;;11.65;2.28;;;17.50;72.90;;;;;;4998503;28;20108;-67
2022/10/04 11:13:08;;;;;;;10.65;3.08;;;17.30;73.90;;;;;;4999584;28;20458;-68
2022/10/04 11:15:50;;;;;;;9.10;3.17;;;17.40;75.10;;;;;;5006398;28;20030;-67
2022/10/04 11:18:36;;;;;;;9.85;3.50;;;17.60;72.80;;;;;;5011205;28;20044;-67
2022/10/04 11:21:43;;;;;;;15.13;3.25;;;18.00;72.60;;;;;;5010845;28;20044;-68
2022/10/04 11:24:33;;;;;;;10.73;3.75;;;18.10;71.20;;;;;;5006580;28;20056;-67
2022/10/04 11:27:27;;;;;;;15.13;3.58;;;18.00;70.70;;;;;;5008858;28;20139;-67
2022/10/04 11:30:11;;;;;;;10.95;2.80;;;18.10;70.10;;;;;;4997409;28;20093;-68
2022/10/04 11:32:58;;;;;;;8.48;3.10;;;18.20;70.00;;;;;;5004613;28;20034;-68
2022/10/04 11:35:59;;;;;;;12.32;3.03;;;18.00;70.10;;;;;;5001243;28;20026;-68
2022/10/04 11:38:50;;;;;;;8.27;2.58;;;17.60;71.00;;;;;;4998553;28;20946;-68
2022/10/04 11:41:35;;;;;;;10.85;2.90;;;18.30;70.20;;;;;;5004789;28;20069;-68
2022/10/04 11:44:19;;;;;;;7.88;2.63;;;18.90;70.20;;;;;;5000090;28;20165;-68
2022/10/04 11:47:08;;;;;;;8.15;2.75;;;19.50;66.50;;;;;;5002245;28;20046;-68
2022/10/04 11:49:55;;;;;;;8.18;2.35;;;19.90;66.10;;;;;;5008021;28;20335;-68
2022/10/04 11:53:05;;;;;;;6.35;2.17;;;19.60;64.30;;;;;;5010207;28;20109;-70
2022/10/04 11:56:03;;;;;;;11.13;2.65;;;20.00;64.30;;;;;;5000955;28;20030;-68
2022/10/04 11:58:31;;;;;;;7.18;2.20;;;20.00;61.50;;;;;;5004445;28;20053;-68
2022/10/04 12:01:29;;;;;;;8.15;2.47;;;20.10;59.50;;;;;;5004329;28;20442;-68
2022/10/04 12:04:19;;;;;;;7.45;2.45;;;20.40;60.50;;;;;;5002737;28;20112;-68
2022/10/04 12:07:41;;;;;;;6.88;2.10;;;20.00;60.30;;;;;;4999259;28;20358;-68
2022/10/04 12:10:50;;;;;;;9.80;2.60;;;19.20;63.40;;;;;;5001056;28;20030;-68
2022/10/04 12:13:45;;;;;;;7.63;2.55;;;19.50;61.80;;;;;;4941007;28;20079;-67
2022/10/04 12:16:26;;;;;;;14.05;2.58;;;19.80;61.50;;;;;;4997666;28;20105;-68
2022/10/04 12:19:40;;;;;;;7.80;2.17;;;20.30;61.20;;;;;;5005744;28;20030;-68
2022/10/04 12:22:38;;;;;;;8.40;2.30;;;19.40;63.60;;;;;;5000656;28;20050;-67
2022/10/04 12:25:41;;;;;;;6.50;2.60;;;19.60;62.10;;;;;;5004382;28;20037;-68
2022/10/04 12:28:36;;;;;;;7.65;2.17;;;20.20;62.60;;;;;;5007337;28;20095;-69
2022/10/04 12:31:25;;;;;;;5.88;1.67;;;20.20;59.70;;;;;;5007424;28;20200;-68
2022/10/04 12:34:03;;;;;;;11.38;2.00;;;20.90;61.50;;;;;;5007390;28;20046;-67
2022/10/04 12:36:40;;;;;;;6.53;2.10;;;20.60;60.20;;;;;;4997266;28;20395;-67
2022/10/04 12:39:38;;;;;;;10.07;1.90;;;20.80;57.90;;;;;;4994839;28;20051;-69
2022/10/04 12:42:33;;;;;;;5.10;1.85;;;20.70;57.70;;;;;;4999293;28;20121;-68
2022/10/04 12:45:26;;;;;;;6.13;2.10;;;20.90;58.20;;;;;;5002531;28;20029;-68
2022/10/04 12:48:16;;;;;;;6.50;2.00;;;21.30;58.30;;;;;;4994974;28;20044;-68
2022/10/04 12:51:15;;;;;;;9.43;1.55;;;21.40;57.10;;;;;;5004794;28;20038;-68
2022/10/04 12:53:55;;;;;;;6.45;1.77;;;21.50;55.30;;;;;;5000740;28;20086;-69
2022/10/04 12:56:37;;;;;;;7.05;1.58;;;21.30;54.70;;;;;;5003645;28;20040;-68
2022/10/04 12:59:22;;;;;;;9.20;1.40;;;21.70;55.60;;;;;;5007316;28;20038;-69
2022/10/04 13:02:07;;;;;;;7.35;1.75;;;22.00;56.50;;;;;;5009859;28;20021;-68
2022/10/04 13:04:52;;;;;;;7.30;1.90;;;21.70;55.00;;;;;;5007790;28;20036;-67
2022/10/04 13:08:02;;;;;;;6.95;1.77;;;21.50;54.90;;;;;;5008178;28;20033;-68
2022/10/04 13:10:55;;;;;;;4.20;1.33;;;21.80;55.10;;;;;;4996825;28;20346;-67
2022/10/04 13:14:03;;;;;;;6.82;1.95;;;22.00;54.80;;;;;;5004188;28;20033;-67
2022/10/04 13:16:48;;;;;;;6.57;1.60;;;22.10;56.00;;;;;;5008503;28;20048;-67
2022/10/04 13:19:52;;;;;;;6.55;1.77;;;21.70;53.90;;;;;;5009244;28;20034;-68
2022/10/04 13:22:40;;;;;;;6.10;1.33;;;22.00;53.60;;;;;;5009323;28;20030;-68
2022/10/04 13:25:34;;;;;;;4.97;1.42;;;22.10;54.30;;;;;;5002909;28;20038;-68
2022/10/04 13:28:22;;;;;;;3.60;1.50;;;22.00;54.20;;;;;;5002619;28;20033;-68
2022/10/04 13:30:55;;;;;;;5.95;1.42;;;21.50;54.00;;;;;;5009051;28;20038;-68
2022/10/04 13:33:57;;;;;;;4.15;1.48;;;22.10;53.90;;;;;;5007064;28;20358;-70
2022/10/04 13:36:48;;;;;;;7.47;1.70;;;21.80;53.60;;;;;;5008783;28;20098;-68
2022/10/04 13:39:31;;;;;;;6.45;1.73;;;22.50;53.60;;;;;;5007255;28;20057;-69
2022/10/04 13:42:34;;;;;;;8.95;1.65;;;22.20;55.40;;;;;;5007881;28;20030;-69
2022/10/04 13:45:41;;;;;;;3.95;1.20;;;22.80;53.10;;;;;;4998850;28;20031;-68
2022/10/04 13:48:25;;;;;;;6.03;1.35;;;23.20;52.10;;;;;;4991294;28;20056;-68
2022/10/04 13:51:27;;;;;;;12.80;1.73;;;23.50;51.00;;;;;;5001524;28;20038;-68
2022/10/04 13:57:28;;;;;;;7.32;2.00;;;22.80;52.40;;;;;;5004669;28;20137;-68
2022/10/04 14:00:10;;;;;;;7.32;1.80;;;22.90;53.90;;;;;;5007237;28;20029;-68
2022/10/04 14:02:50;;;;;;;6.38;1.75;;;23.10;52.10;;;;;;5000540;28;20030;-68
2022/10/04 14:05:47;;;;;;;8.50;2.00;;;22.80;52.10;;;;;;5000941;28;20026;-68
2022/10/04 14:08:41;;;;;;;6.43;2.03;;;22.80;52.10;;;;;;5006485;28;20359;-68
2022/10/04 14:11:37;;;;;;;5.28;1.60;;;22.90;51.60;;;;;;5002599;28;20053;-68
2022/10/04 14:14:16;;;;;;;5.03;1.70;;;22.50;50.10;;;;;;4999707;28;20052;-68